sensor_id;sensor_type;location;lat;lon;timestamp;P1;durP1;ratioP1;P2;durP2;ratioP2
81154;SDS011;70631;50.436;7.826;2024-01-06T00:01:19;3.17;;;0.80;;
81154;SDS011;70631;50.436;7.826;2024-01-06T00:03:44;3.87;;;1.17;;
81154;SDS011;70631;50.436;7.826;2024-01-06T00:06:15;1.43;;;0.83;;
81154;SDS011;70631;50.436;7.826;2024-01-06T00:08:40;4.95;;;1.80;;
81154;SDS011;70631;50.436;7.826;2024-01-06T00:11:06;3.90;;;1.57;;
81154;SDS011;70631;50.436;7.826;2024-01-06T00:13:31;10.50;;;4.10;;
81154;SDS011;70631;50.436;7.826;2024-01-06T00:15:56;6.27;;;1.60;;
81154;SDS011;70631;50.436;7.826;2024-01-06T00:18:22;9.33;;;3.10;;
81154;SDS011;70631;50.436;7.826;2024-01-06T00:20:47;2.47;;;1.30;;
81154;SDS011;70631;50.436;7.826;2024-01-06T00:23:12;3.43;;;1.10;;
81154;SDS011;70631;50.436;7.826;2024-01-06T00:25:38;3.67;;;1.20;;
81154;SDS011;70631;50.436;7.826;2024-01-06T00:28:03;2.87;;;1.60;;
81154;SDS011;70631;50.436;7.826;2024-01-06T00:30:29;4.63;;;1.40;;
81154;SDS011;70631;50.436;7.826;2024-01-06T00:32:54;3.30;;;1.80;;
81154;SDS011;70631;50.436;7.826;2024-01-06T00:35:20;7.88;;;4.15;;
81154;SDS011;70631;50.436;7.826;2024-01-06T00:37:45;6.07;;;2.53;;
81154;SDS011;70631;50.436;7.826;2024-01-06T00:40:10;2.40;;;1.00;;
81154;SDS011;70631;50.436;7.826;2024-01-06T00:42:36;8.77;;;4.25;;
81154;SDS011;70631;50.436;7.826;2024-01-06T00:45:01;4.33;;;1.30;;
81154;SDS011;70631;50.436;7.826;2024-01-06T00:47:26;1.80;;;1.03;;
81154;SDS011;70631;50.436;7.826;2024-01-06T00:49:51;4.77;;;1.30;;
81154;SDS011;70631;50.436;7.826;2024-01-06T00:52:17;7.13;;;4.30;;
81154;SDS011;70631;50.436;7.826;2024-01-06T00:54:42;5.10;;;2.47;;
81154;SDS011;70631;50.436;7.826;2024-01-06T00:57:07;2.70;;;1.60;;
81154;SDS011;70631;50.436;7.826;2024-01-06T00:59:32;3.83;;;1.27;;
81154;SDS011;70631;50.436;7.826;2024-01-06T01:01:58;2.43;;;1.30;;
81154;SDS011;70631;50.436;7.826;2024-01-06T01:04:23;2.93;;;1.17;;
81154;SDS011;70631;50.436;7.826;2024-01-06T01:06:48;3.07;;;1.17;;
81154;SDS011;70631;50.436;7.826;2024-01-06T01:09:13;3.43;;;1.00;;
81154;SDS011;70631;50.436;7.826;2024-01-06T01:11:39;3.23;;;1.10;;
81154;SDS011;70631;50.436;7.826;2024-01-06T01:14:05;7.10;;;1.40;;
81154;SDS011;70631;50.436;7.826;2024-01-06T01:16:30;4.67;;;1.10;;
81154;SDS011;70631;50.436;7.826;2024-01-06T01:18:57;2.75;;;1.05;;
81154;SDS011;70631;50.436;7.826;2024-01-06T01:21:22;3.03;;;1.13;;
81154;SDS011;70631;50.436;7.826;2024-01-06T01:23:48;0.80;;;0.60;;
81154;SDS011;70631;50.436;7.826;2024-01-06T01:26:13;4.20;;;1.20;;
81154;SDS011;70631;50.436;7.826;2024-01-06T01:28:38;3.67;;;1.10;;
81154;SDS011;70631;50.436;7.826;2024-01-06T01:31:03;1.87;;;0.93;;
81154;SDS011;70631;50.436;7.826;2024-01-06T01:33:29;2.87;;;0.80;;
81154;SDS011;70631;50.436;7.826;2024-01-06T01:35:54;2.60;;;0.83;;
81154;SDS011;70631;50.436;7.826;2024-01-06T01:38:19;3.53;;;0.93;;
81154;SDS011;70631;50.436;7.826;2024-01-06T01:40:44;3.73;;;1.00;;
81154;SDS011;70631;50.436;7.826;2024-01-06T01:43:16;4.80;;;1.53;;
81154;SDS011;70631;50.436;7.826;2024-01-06T01:45:43;1.08;;;0.82;;
81154;SDS011;70631;50.436;7.826;2024-01-06T01:48:08;2.83;;;0.98;;
81154;SDS011;70631;50.436;7.826;2024-01-06T01:50:33;2.60;;;0.87;;
81154;SDS011;70631;50.436;7.826;2024-01-06T01:52:59;3.58;;;1.05;;
81154;SDS011;70631;50.436;7.826;2024-01-06T01:55:25;4.07;;;1.20;;
81154;SDS011;70631;50.436;7.826;2024-01-06T01:57:50;2.53;;;1.50;;
81154;SDS011;70631;50.436;7.826;2024-01-06T02:00:15;5.53;;;1.38;;
81154;SDS011;70631;50.436;7.826;2024-01-06T02:02:41;5.20;;;1.10;;
81154;SDS011;70631;50.436;7.826;2024-01-06T02:05:06;2.33;;;1.02;;
81154;SDS011;70631;50.436;7.826;2024-01-06T02:07:31;4.68;;;1.27;;
81154;SDS011;70631;50.436;7.826;2024-01-06T02:09:57;2.97;;;1.23;;
81154;SDS011;70631;50.436;7.826;2024-01-06T02:12:22;2.20;;;1.00;;
81154;SDS011;70631;50.436;7.826;2024-01-06T02:14:47;3.07;;;1.10;;
81154;SDS011;70631;50.436;7.826;2024-01-06T02:17:13;2.47;;;0.97;;
81154;SDS011;70631;50.436;7.826;2024-01-06T02:19:38;2.33;;;1.10;;
81154;SDS011;70631;50.436;7.826;2024-01-06T02:22:03;1.50;;;1.00;;
81154;SDS011;70631;50.436;7.826;2024-01-06T02:24:28;1.20;;;1.00;;
81154;SDS011;70631;50.436;7.826;2024-01-06T02:26:54;2.17;;;1.17;;
81154;SDS011;70631;50.436;7.826;2024-01-06T02:29:19;5.37;;;1.17;;
81154;SDS011;70631;50.436;7.826;2024-01-06T02:31:44;2.80;;;1.27;;
81154;SDS011;70631;50.436;7.826;2024-01-06T02:34:10;4.53;;;1.30;;
81154;SDS011;70631;50.436;7.826;2024-01-06T02:36:35;4.40;;;1.03;;
81154;SDS011;70631;50.436;7.826;2024-01-06T02:39:00;3.57;;;1.10;;
81154;SDS011;70631;50.436;7.826;2024-01-06T02:41:25;3.67;;;1.30;;
81154;SDS011;70631;50.436;7.826;2024-01-06T02:43:51;3.70;;;1.17;;
81154;SDS011;70631;50.436;7.826;2024-01-06T02:46:17;2.70;;;1.52;;
81154;SDS011;70631;50.436;7.826;2024-01-06T02:48:42;1.37;;;1.07;;
81154;SDS011;70631;50.436;7.826;2024-01-06T02:51:07;5.03;;;1.53;;
81154;SDS011;70631;50.436;7.826;2024-01-06T02:53:32;1.97;;;1.10;;
81154;SDS011;70631;50.436;7.826;2024-01-06T02:55:58;6.23;;;1.10;;
81154;SDS011;70631;50.436;7.826;2024-01-06T02:58:23;3.43;;;1.23;;
81154;SDS011;70631;50.436;7.826;2024-01-06T03:00:48;2.00;;;0.97;;
81154;SDS011;70631;50.436;7.826;2024-01-06T03:03:13;1.90;;;1.00;;
81154;SDS011;70631;50.436;7.826;2024-01-06T03:05:39;7.00;;;1.57;;
81154;SDS011;70631;50.436;7.826;2024-01-06T03:08:04;4.13;;;1.07;;
81154;SDS011;70631;50.436;7.826;2024-01-06T03:10:30;3.47;;;1.88;;
81154;SDS011;70631;50.436;7.826;2024-01-06T03:12:55;4.83;;;1.63;;
81154;SDS011;70631;50.436;7.826;2024-01-06T03:15:20;1.60;;;1.07;;
81154;SDS011;70631;50.436;7.826;2024-01-06T03:17:45;3.70;;;1.30;;
81154;SDS011;70631;50.436;7.826;2024-01-06T03:20:11;2.00;;;1.03;;
81154;SDS011;70631;50.436;7.826;2024-01-06T03:22:36;1.30;;;1.00;;
81154;SDS011;70631;50.436;7.826;2024-01-06T03:25:03;2.85;;;1.17;;
81154;SDS011;70631;50.436;7.826;2024-01-06T03:27:28;3.45;;;1.58;;
81154;SDS011;70631;50.436;7.826;2024-01-06T03:29:54;1.33;;;1.00;;
81154;SDS011;70631;50.436;7.826;2024-01-06T03:32:19;5.50;;;1.33;;
81154;SDS011;70631;50.436;7.826;2024-01-06T03:34:44;6.70;;;1.37;;
81154;SDS011;70631;50.436;7.826;2024-01-06T03:37:09;2.60;;;1.17;;
81154;SDS011;70631;50.436;7.826;2024-01-06T03:39:35;1.83;;;1.20;;
81154;SDS011;70631;50.436;7.826;2024-01-06T03:42:00;5.07;;;1.40;;
81154;SDS011;70631;50.436;7.826;2024-01-06T03:44:25;1.55;;;1.08;;
81154;SDS011;70631;50.436;7.826;2024-01-06T03:46:55;2.83;;;1.50;;
81154;SDS011;70631;50.436;7.826;2024-01-06T03:49:21;3.05;;;1.23;;
81154;SDS011;70631;50.436;7.826;2024-01-06T03:51:46;3.67;;;1.37;;
81154;SDS011;70631;50.436;7.826;2024-01-06T03:54:11;3.80;;;1.33;;
81154;SDS011;70631;50.436;7.826;2024-01-06T03:56:37;3.10;;;2.40;;
81154;SDS011;70631;50.436;7.826;2024-01-06T03:59:02;2.87;;;1.20;;
81154;SDS011;70631;50.436;7.826;2024-01-06T04:01:27;3.17;;;1.30;;
81154;SDS011;70631;50.436;7.826;2024-01-06T04:03:53;2.08;;;1.30;;
81154;SDS011;70631;50.436;7.826;2024-01-06T04:06:19;3.33;;;1.23;;
81154;SDS011;70631;50.436;7.826;2024-01-06T04:08:44;3.90;;;1.60;;
81154;SDS011;70631;50.436;7.826;2024-01-06T04:11:09;1.87;;;1.17;;
81154;SDS011;70631;50.436;7.826;2024-01-06T04:13:34;1.73;;;1.17;;
81154;SDS011;70631;50.436;7.826;2024-01-06T04:16:00;1.97;;;1.20;;
81154;SDS011;70631;50.436;7.826;2024-01-06T04:18:25;2.60;;;1.47;;
81154;SDS011;70631;50.436;7.826;2024-01-06T04:20:50;2.40;;;1.38;;
81154;SDS011;70631;50.436;7.826;2024-01-06T04:23:15;2.73;;;1.63;;
81154;SDS011;70631;50.436;7.826;2024-01-06T04:25:41;2.50;;;1.37;;
81154;SDS011;70631;50.436;7.826;2024-01-06T04:28:06;4.17;;;1.30;;
81154;SDS011;70631;50.436;7.826;2024-01-06T04:30:31;4.27;;;2.00;;
81154;SDS011;70631;50.436;7.826;2024-01-06T04:32:56;2.07;;;1.23;;
81154;SDS011;70631;50.436;7.826;2024-01-06T04:35:22;1.83;;;1.30;;
81154;SDS011;70631;50.436;7.826;2024-01-06T04:37:48;2.47;;;1.55;;
81154;SDS011;70631;50.436;7.826;2024-01-06T04:40:13;2.63;;;1.43;;
81154;SDS011;70631;50.436;7.826;2024-01-06T04:42:38;4.23;;;1.50;;
81154;SDS011;70631;50.436;7.826;2024-01-06T04:45:04;3.37;;;1.50;;
81154;SDS011;70631;50.436;7.826;2024-01-06T04:47:30;2.38;;;1.30;;
81154;SDS011;70631;50.436;7.826;2024-01-06T04:49:55;2.47;;;1.50;;
81154;SDS011;70631;50.436;7.826;2024-01-06T04:52:21;1.55;;;1.27;;
81154;SDS011;70631;50.436;7.826;2024-01-06T04:54:46;3.60;;;1.90;;
81154;SDS011;70631;50.436;7.826;2024-01-06T04:57:11;3.07;;;1.80;;
81154;SDS011;70631;50.436;7.826;2024-01-06T04:59:36;1.83;;;1.60;;
81154;SDS011;70631;50.436;7.826;2024-01-06T05:02:02;3.40;;;1.70;;
81154;SDS011;70631;50.436;7.826;2024-01-06T05:04:27;2.85;;;1.63;;
81154;SDS011;70631;50.436;7.826;2024-01-06T05:06:53;3.50;;;1.30;;
81154;SDS011;70631;50.436;7.826;2024-01-06T05:09:19;6.03;;;1.90;;
81154;SDS011;70631;50.436;7.826;2024-01-06T05:11:45;4.67;;;1.43;;
81154;SDS011;70631;50.436;7.826;2024-01-06T05:14:10;1.93;;;1.33;;
81154;SDS011;70631;50.436;7.826;2024-01-06T05:16:36;3.45;;;1.30;;
81154;SDS011;70631;50.436;7.826;2024-01-06T05:19:01;1.57;;;1.33;;
81154;SDS011;70631;50.436;7.826;2024-01-06T05:21:26;1.77;;;1.50;;
81154;SDS011;70631;50.436;7.826;2024-01-06T05:23:52;4.03;;;1.60;;
81154;SDS011;70631;50.436;7.826;2024-01-06T05:26:17;2.43;;;1.80;;
81154;SDS011;70631;50.436;7.826;2024-01-06T05:28:42;2.70;;;1.70;;
81154;SDS011;70631;50.436;7.826;2024-01-06T05:31:08;4.65;;;1.60;;
81154;SDS011;70631;50.436;7.826;2024-01-06T05:33:33;3.10;;;1.52;;
81154;SDS011;70631;50.436;7.826;2024-01-06T05:35:58;1.70;;;1.30;;
81154;SDS011;70631;50.436;7.826;2024-01-06T05:38:24;3.92;;;1.45;;
81154;SDS011;70631;50.436;7.826;2024-01-06T05:40:49;4.70;;;1.63;;
81154;SDS011;70631;50.436;7.826;2024-01-06T05:43:14;3.00;;;2.20;;
81154;SDS011;70631;50.436;7.826;2024-01-06T05:45:40;3.23;;;1.67;;
81154;SDS011;70631;50.436;7.826;2024-01-06T05:48:09;3.42;;;1.52;;
81154;SDS011;70631;50.436;7.826;2024-01-06T05:50:35;6.07;;;1.90;;
81154;SDS011;70631;50.436;7.826;2024-01-06T05:53:00;3.03;;;1.50;;
81154;SDS011;70631;50.436;7.826;2024-01-06T05:55:25;2.30;;;1.93;;
81154;SDS011;70631;50.436;7.826;2024-01-06T05:57:51;3.07;;;1.60;;
81154;SDS011;70631;50.436;7.826;2024-01-06T06:00:16;4.40;;;1.90;;
81154;SDS011;70631;50.436;7.826;2024-01-06T06:02:41;3.22;;;1.75;;
81154;SDS011;70631;50.436;7.826;2024-01-06T06:05:07;2.80;;;1.97;;
81154;SDS011;70631;50.436;7.826;2024-01-06T06:07:32;4.40;;;1.77;;
81154;SDS011;70631;50.436;7.826;2024-01-06T06:09:57;3.60;;;1.77;;
81154;SDS011;70631;50.436;7.826;2024-01-06T06:12:23;10.07;;;9.27;;
81154;SDS011;70631;50.436;7.826;2024-01-06T06:14:48;2.87;;;1.57;;
81154;SDS011;70631;50.436;7.826;2024-01-06T06:17:13;2.33;;;1.43;;
81154;SDS011;70631;50.436;7.826;2024-01-06T06:19:39;1.67;;;1.53;;
81154;SDS011;70631;50.436;7.826;2024-01-06T06:22:04;3.00;;;1.83;;
81154;SDS011;70631;50.436;7.826;2024-01-06T06:24:29;3.07;;;1.63;;
81154;SDS011;70631;50.436;7.826;2024-01-06T06:26:54;3.40;;;2.00;;
81154;SDS011;70631;50.436;7.826;2024-01-06T06:29:20;3.43;;;1.80;;
81154;SDS011;70631;50.436;7.826;2024-01-06T06:31:45;2.03;;;1.77;;
81154;SDS011;70631;50.436;7.826;2024-01-06T06:34:11;6.85;;;5.25;;
81154;SDS011;70631;50.436;7.826;2024-01-06T06:36:37;6.07;;;5.50;;
81154;SDS011;70631;50.436;7.826;2024-01-06T06:39:03;3.17;;;2.30;;
81154;SDS011;70631;50.436;7.826;2024-01-06T06:41:29;2.80;;;2.03;;
81154;SDS011;70631;50.436;7.826;2024-01-06T06:43:54;3.92;;;1.80;;
81154;SDS011;70631;50.436;7.826;2024-01-06T06:46:20;3.90;;;3.35;;
81154;SDS011;70631;50.436;7.826;2024-01-06T06:48:46;12.37;;;10.77;;
81154;SDS011;70631;50.436;7.826;2024-01-06T06:51:11;4.57;;;4.13;;
81154;SDS011;70631;50.436;7.826;2024-01-06T06:53:36;4.63;;;2.53;;
81154;SDS011;70631;50.436;7.826;2024-01-06T06:56:02;4.70;;;1.93;;
81154;SDS011;70631;50.436;7.826;2024-01-06T06:58:27;2.80;;;1.58;;
81154;SDS011;70631;50.436;7.826;2024-01-06T07:00:52;2.60;;;1.80;;
81154;SDS011;70631;50.436;7.826;2024-01-06T07:03:19;6.25;;;2.47;;
81154;SDS011;70631;50.436;7.826;2024-01-06T07:05:44;3.40;;;2.08;;
81154;SDS011;70631;50.436;7.826;2024-01-06T07:08:09;6.47;;;3.40;;
81154;SDS011;70631;50.436;7.826;2024-01-06T07:10:35;3.60;;;1.90;;
81154;SDS011;70631;50.436;7.826;2024-01-06T07:13:00;2.40;;;1.90;;
81154;SDS011;70631;50.436;7.826;2024-01-06T07:15:25;2.30;;;1.73;;
81154;SDS011;70631;50.436;7.826;2024-01-06T07:17:50;2.90;;;2.57;;
81154;SDS011;70631;50.436;7.826;2024-01-06T07:20:16;4.13;;;2.10;;
81154;SDS011;70631;50.436;7.826;2024-01-06T07:22:41;3.57;;;2.57;;
81154;SDS011;70631;50.436;7.826;2024-01-06T07:25:06;6.30;;;4.20;;
81154;SDS011;70631;50.436;7.826;2024-01-06T07:27:32;3.03;;;2.28;;
81154;SDS011;70631;50.436;7.826;2024-01-06T07:29:58;3.90;;;2.40;;
81154;SDS011;70631;50.436;7.826;2024-01-06T07:32:23;16.05;;;14.43;;
81154;SDS011;70631;50.436;7.826;2024-01-06T07:34:49;9.82;;;8.82;;
81154;SDS011;70631;50.436;7.826;2024-01-06T07:37:15;3.95;;;2.28;;
81154;SDS011;70631;50.436;7.826;2024-01-06T07:39:40;17.73;;;13.53;;
81154;SDS011;70631;50.436;7.826;2024-01-06T07:42:06;4.47;;;3.13;;
81154;SDS011;70631;50.436;7.826;2024-01-06T07:44:31;4.20;;;2.70;;
81154;SDS011;70631;50.436;7.826;2024-01-06T07:46:56;6.15;;;4.05;;
81154;SDS011;70631;50.436;7.826;2024-01-06T07:49:21;8.23;;;7.37;;
81154;SDS011;70631;50.436;7.826;2024-01-06T07:51:47;6.87;;;5.67;;
81154;SDS011;70631;50.436;7.826;2024-01-06T07:54:12;8.13;;;4.90;;
81154;SDS011;70631;50.436;7.826;2024-01-06T07:56:37;6.03;;;4.90;;
81154;SDS011;70631;50.436;7.826;2024-01-06T07:59:04;7.43;;;5.68;;
81154;SDS011;70631;50.436;7.826;2024-01-06T08:01:29;7.55;;;6.72;;
81154;SDS011;70631;50.436;7.826;2024-01-06T08:03:55;8.60;;;7.68;;
81154;SDS011;70631;50.436;7.826;2024-01-06T08:06:20;7.93;;;4.10;;
81154;SDS011;70631;50.436;7.826;2024-01-06T08:08:45;5.80;;;3.08;;
81154;SDS011;70631;50.436;7.826;2024-01-06T08:11:11;4.27;;;3.10;;
81154;SDS011;70631;50.436;7.826;2024-01-06T08:13:36;5.63;;;2.88;;
81154;SDS011;70631;50.436;7.826;2024-01-06T08:16:02;5.28;;;3.22;;
81154;SDS011;70631;50.436;7.826;2024-01-06T08:18:28;6.22;;;3.60;;
81154;SDS011;70631;50.436;7.826;2024-01-06T08:20:53;5.47;;;4.22;;
81154;SDS011;70631;50.436;7.826;2024-01-06T08:23:18;4.03;;;2.88;;
81154;SDS011;70631;50.436;7.826;2024-01-06T08:25:45;7.05;;;4.45;;
81154;SDS011;70631;50.436;7.826;2024-01-06T08:28:11;16.13;;;8.90;;
81154;SDS011;70631;50.436;7.826;2024-01-06T08:30:36;7.00;;;4.05;;
81154;SDS011;70631;50.436;7.826;2024-01-06T08:33:01;5.07;;;3.50;;
81154;SDS011;70631;50.436;7.826;2024-01-06T08:35:27;6.80;;;4.00;;
81154;SDS011;70631;50.436;7.826;2024-01-06T08:37:52;5.57;;;3.00;;
81154;SDS011;70631;50.436;7.826;2024-01-06T08:40:17;6.73;;;4.20;;
81154;SDS011;70631;50.436;7.826;2024-01-06T08:42:43;5.97;;;3.67;;
81154;SDS011;70631;50.436;7.826;2024-01-06T08:45:09;6.13;;;2.90;;
81154;SDS011;70631;50.436;7.826;2024-01-06T08:47:34;6.38;;;2.95;;
81154;SDS011;70631;50.436;7.826;2024-01-06T08:49:59;4.97;;;3.10;;
81154;SDS011;70631;50.436;7.826;2024-01-06T08:52:25;4.73;;;2.90;;
81154;SDS011;70631;50.436;7.826;2024-01-06T08:54:50;4.83;;;2.90;;
81154;SDS011;70631;50.436;7.826;2024-01-06T08:57:15;4.40;;;3.27;;
81154;SDS011;70631;50.436;7.826;2024-01-06T08:59:40;4.17;;;2.40;;
81154;SDS011;70631;50.436;7.826;2024-01-06T09:02:06;4.30;;;2.57;;
81154;SDS011;70631;50.436;7.826;2024-01-06T09:04:31;5.53;;;2.10;;
81154;SDS011;70631;50.436;7.826;2024-01-06T09:06:56;3.80;;;2.10;;
81154;SDS011;70631;50.436;7.826;2024-01-06T09:09:21;4.53;;;2.60;;
81154;SDS011;70631;50.436;7.826;2024-01-06T09:11:48;4.07;;;2.30;;
81154;SDS011;70631;50.436;7.826;2024-01-06T09:14:13;4.60;;;2.45;;
81154;SDS011;70631;50.436;7.826;2024-01-06T09:16:39;4.73;;;2.57;;
81154;SDS011;70631;50.436;7.826;2024-01-06T09:19:04;6.00;;;2.20;;
81154;SDS011;70631;50.436;7.826;2024-01-06T09:21:29;4.83;;;3.00;;
81154;SDS011;70631;50.436;7.826;2024-01-06T09:23:55;4.33;;;3.20;;
81154;SDS011;70631;50.436;7.826;2024-01-06T09:26:20;4.27;;;2.70;;
81154;SDS011;70631;50.436;7.826;2024-01-06T09:28:45;5.22;;;2.83;;
81154;SDS011;70631;50.436;7.826;2024-01-06T09:31:11;5.57;;;3.63;;
81154;SDS011;70631;50.436;7.826;2024-01-06T09:33:36;5.93;;;3.17;;
81154;SDS011;70631;50.436;7.826;2024-01-06T09:36:02;5.97;;;3.37;;
81154;SDS011;70631;50.436;7.826;2024-01-06T09:38:27;4.95;;;3.53;;
81154;SDS011;70631;50.436;7.826;2024-01-06T09:40:53;6.25;;;2.90;;
81154;SDS011;70631;50.436;7.826;2024-01-06T09:43:20;6.68;;;3.65;;
81154;SDS011;70631;50.436;7.826;2024-01-06T09:45:46;7.80;;;4.13;;
81154;SDS011;70631;50.436;7.826;2024-01-06T09:48:19;7.35;;;4.13;;
81154;SDS011;70631;50.436;7.826;2024-01-06T09:50:46;5.97;;;3.40;;
81154;SDS011;70631;50.436;7.826;2024-01-06T09:53:14;7.80;;;4.68;;
81154;SDS011;70631;50.436;7.826;2024-01-06T09:55:41;12.25;;;7.03;;
81154;SDS011;70631;50.436;7.826;2024-01-06T09:58:08;17.20;;;9.18;;
81154;SDS011;70631;50.436;7.826;2024-01-06T10:00:33;19.77;;;11.52;;
81154;SDS011;70631;50.436;7.826;2024-01-06T10:02:59;24.25;;;12.57;;
81154;SDS011;70631;50.436;7.826;2024-01-06T10:05:24;24.73;;;12.03;;
81154;SDS011;70631;50.436;7.826;2024-01-06T10:07:49;24.80;;;11.93;;
81154;SDS011;70631;50.436;7.826;2024-01-06T10:10:15;19.50;;;11.07;;
81154;SDS011;70631;50.436;7.826;2024-01-06T10:12:40;21.65;;;11.02;;
81154;SDS011;70631;50.436;7.826;2024-01-06T10:15:07;24.25;;;11.68;;
81154;SDS011;70631;50.436;7.826;2024-01-06T10:17:35;24.85;;;11.50;;
81154;SDS011;70631;50.436;7.826;2024-01-06T10:20:02;23.70;;;12.02;;
81154;SDS011;70631;50.436;7.826;2024-01-06T10:22:28;23.20;;;12.77;;
81154;SDS011;70631;50.436;7.826;2024-01-06T10:24:54;22.80;;;10.73;;
81154;SDS011;70631;50.436;7.826;2024-01-06T10:27:20;19.83;;;10.35;;
81154;SDS011;70631;50.436;7.826;2024-01-06T10:29:46;19.48;;;9.77;;
81154;SDS011;70631;50.436;7.826;2024-01-06T10:32:11;21.27;;;10.37;;
81154;SDS011;70631;50.436;7.826;2024-01-06T10:34:37;17.50;;;8.60;;
81154;SDS011;70631;50.436;7.826;2024-01-06T10:37:03;17.57;;;9.43;;
81154;SDS011;70631;50.436;7.826;2024-01-06T10:39:28;18.43;;;9.63;;
81154;SDS011;70631;50.436;7.826;2024-01-06T10:41:54;17.77;;;9.52;;
81154;SDS011;70631;50.436;7.826;2024-01-06T10:44:20;17.55;;;9.00;;
81154;SDS011;70631;50.436;7.826;2024-01-06T10:46:46;20.25;;;8.93;;
81154;SDS011;70631;50.436;7.826;2024-01-06T10:49:13;16.45;;;8.38;;
81154;SDS011;70631;50.436;7.826;2024-01-06T10:51:40;20.95;;;13.15;;
81154;SDS011;70631;50.436;7.826;2024-01-06T10:54:05;16.73;;;9.45;;
81154;SDS011;70631;50.436;7.826;2024-01-06T10:56:31;13.80;;;7.03;;
81154;SDS011;70631;50.436;7.826;2024-01-06T10:59:03;16.33;;;7.75;;
81154;SDS011;70631;50.436;7.826;2024-01-06T11:01:29;15.90;;;8.15;;
81154;SDS011;70631;50.436;7.826;2024-01-06T11:03:54;15.15;;;8.07;;
81154;SDS011;70631;50.436;7.826;2024-01-06T11:06:20;18.65;;;9.70;;
81154;SDS011;70631;50.436;7.826;2024-01-06T11:09:10;17.15;;;8.40;;
81154;SDS011;70631;50.436;7.826;2024-01-06T11:11:34;17.35;;;9.85;;
81154;SDS011;70631;50.436;7.826;2024-01-06T11:16:58;19.25;;;10.60;;
81154;SDS011;70631;50.436;7.826;2024-01-06T11:27:30;16.40;;;7.88;;
81154;SDS011;70631;50.436;7.826;2024-01-06T11:29:56;18.67;;;9.23;;
81154;SDS011;70631;50.436;7.826;2024-01-06T11:32:30;16.98;;;9.23;;
81154;SDS011;70631;50.436;7.826;2024-01-06T11:42:46;15.52;;;9.45;;
81154;SDS011;70631;50.436;7.826;2024-01-06T11:45:13;17.27;;;9.60;;
81154;SDS011;70631;50.436;7.826;2024-01-06T11:47:38;20.67;;;12.25;;
81154;SDS011;70631;50.436;7.826;2024-01-06T11:50:04;13.70;;;8.98;;
81154;SDS011;70631;50.436;7.826;2024-01-06T11:52:30;16.13;;;9.00;;
81154;SDS011;70631;50.436;7.826;2024-01-06T11:54:57;27.08;;;8.68;;
81154;SDS011;70631;50.436;7.826;2024-01-06T11:57:24;14.20;;;8.07;;
81154;SDS011;70631;50.436;7.826;2024-01-06T11:59:53;13.25;;;8.23;;
81154;SDS011;70631;50.436;7.826;2024-01-06T12:02:19;18.40;;;10.38;;
81154;SDS011;70631;50.436;7.826;2024-01-06T12:04:50;19.67;;;11.80;;
81154;SDS011;70631;50.436;7.826;2024-01-06T12:07:17;14.77;;;8.18;;
81154;SDS011;70631;50.436;7.826;2024-01-06T12:09:45;19.77;;;10.95;;
81154;SDS011;70631;50.436;7.826;2024-01-06T12:12:11;16.80;;;10.52;;
81154;SDS011;70631;50.436;7.826;2024-01-06T12:14:38;17.95;;;9.88;;
81154;SDS011;70631;50.436;7.826;2024-01-06T12:17:06;21.05;;;14.20;;
81154;SDS011;70631;50.436;7.826;2024-01-06T12:19:32;13.70;;;8.73;;
81154;SDS011;70631;50.436;7.826;2024-01-06T12:21:58;16.17;;;9.65;;
81154;SDS011;70631;50.436;7.826;2024-01-06T12:24:24;17.15;;;10.45;;
81154;SDS011;70631;50.436;7.826;2024-01-06T12:26:52;16.23;;;8.90;;
81154;SDS011;70631;50.436;7.826;2024-01-06T12:29:18;16.30;;;9.17;;
81154;SDS011;70631;50.436;7.826;2024-01-06T12:31:44;12.50;;;9.10;;
81154;SDS011;70631;50.436;7.826;2024-01-06T12:34:10;15.15;;;9.13;;
81154;SDS011;70631;50.436;7.826;2024-01-06T12:36:39;12.15;;;7.68;;
81154;SDS011;70631;50.436;7.826;2024-01-06T12:39:06;11.80;;;8.55;;
81154;SDS011;70631;50.436;7.826;2024-01-06T12:41:38;11.30;;;8.13;;
81154;SDS011;70631;50.436;7.826;2024-01-06T12:44:04;12.50;;;7.53;;
81154;SDS011;70631;50.436;7.826;2024-01-06T12:46:29;14.10;;;8.18;;
81154;SDS011;70631;50.436;7.826;2024-01-06T12:48:54;9.50;;;5.90;;
81154;SDS011;70631;50.436;7.826;2024-01-06T12:51:20;9.30;;;4.70;;
81154;SDS011;70631;50.436;7.826;2024-01-06T12:53:45;8.50;;;5.70;;
81154;SDS011;70631;50.436;7.826;2024-01-06T12:56:10;9.70;;;6.53;;
81154;SDS011;70631;50.436;7.826;2024-01-06T12:58:36;7.78;;;4.15;;
81154;SDS011;70631;50.436;7.826;2024-01-06T13:01:01;9.10;;;6.60;;
81154;SDS011;70631;50.436;7.826;2024-01-06T13:03:27;8.55;;;5.32;;
81154;SDS011;70631;50.436;7.826;2024-01-06T13:05:53;8.35;;;5.85;;
81154;SDS011;70631;50.436;7.826;2024-01-06T13:08:18;7.72;;;4.05;;
81154;SDS011;70631;50.436;7.826;2024-01-06T13:10:44;10.33;;;7.73;;
81154;SDS011;70631;50.436;7.826;2024-01-06T13:13:09;6.63;;;3.80;;
81154;SDS011;70631;50.436;7.826;2024-01-06T13:15:34;8.80;;;4.27;;
81154;SDS011;70631;50.436;7.826;2024-01-06T13:17:59;5.80;;;3.77;;
81154;SDS011;70631;50.436;7.826;2024-01-06T13:20:25;8.60;;;6.37;;
81154;SDS011;70631;50.436;7.826;2024-01-06T13:22:50;9.90;;;5.60;;
81154;SDS011;70631;50.436;7.826;2024-01-06T13:25:16;12.57;;;7.00;;
81154;SDS011;70631;50.436;7.826;2024-01-06T13:27:42;8.45;;;5.30;;
81154;SDS011;70631;50.436;7.826;2024-01-06T13:30:07;10.43;;;7.10;;
81154;SDS011;70631;50.436;7.826;2024-01-06T13:32:33;8.52;;;5.85;;
81154;SDS011;70631;50.436;7.826;2024-01-06T13:34:58;11.23;;;6.73;;
81154;SDS011;70631;50.436;7.826;2024-01-06T13:37:29;8.75;;;4.75;;
81154;SDS011;70631;50.436;7.826;2024-01-06T13:39:55;10.38;;;6.80;;
81154;SDS011;70631;50.436;7.826;2024-01-06T13:42:20;8.97;;;6.10;;
81154;SDS011;70631;50.436;7.826;2024-01-06T13:44:46;11.23;;;5.80;;
81154;SDS011;70631;50.436;7.826;2024-01-06T13:47:13;9.13;;;6.80;;
81154;SDS011;70631;50.436;7.826;2024-01-06T13:49:38;10.85;;;6.30;;
81154;SDS011;70631;50.436;7.826;2024-01-06T13:52:04;11.68;;;5.95;;
81154;SDS011;70631;50.436;7.826;2024-01-06T13:54:29;11.52;;;7.45;;
81154;SDS011;70631;50.436;7.826;2024-01-06T13:56:55;13.57;;;7.17;;
81154;SDS011;70631;50.436;7.826;2024-01-06T13:59:20;11.50;;;7.43;;
81154;SDS011;70631;50.436;7.826;2024-01-06T14:01:45;12.80;;;7.27;;
81154;SDS011;70631;50.436;7.826;2024-01-06T14:04:11;10.88;;;7.97;;
81154;SDS011;70631;50.436;7.826;2024-01-06T14:06:36;11.03;;;8.53;;
81154;SDS011;70631;50.436;7.826;2024-01-06T14:09:02;11.68;;;8.52;;
81154;SDS011;70631;50.436;7.826;2024-01-06T14:11:30;12.73;;;8.25;;
81154;SDS011;70631;50.436;7.826;2024-01-06T14:13:56;10.43;;;7.83;;
81154;SDS011;70631;50.436;7.826;2024-01-06T14:16:22;16.45;;;10.05;;
81154;SDS011;70631;50.436;7.826;2024-01-06T14:18:48;15.15;;;11.73;;
81154;SDS011;70631;50.436;7.826;2024-01-06T14:21:13;17.00;;;12.43;;
81154;SDS011;70631;50.436;7.826;2024-01-06T14:23:44;17.30;;;14.68;;
81154;SDS011;70631;50.436;7.826;2024-01-06T14:26:14;9.32;;;5.57;;
81154;SDS011;70631;50.436;7.826;2024-01-06T14:28:40;10.32;;;6.20;;
81154;SDS011;70631;50.436;7.826;2024-01-06T14:31:05;9.97;;;6.10;;
81154;SDS011;70631;50.436;7.826;2024-01-06T14:33:30;11.10;;;5.70;;
81154;SDS011;70631;50.436;7.826;2024-01-06T14:35:56;10.15;;;5.65;;
81154;SDS011;70631;50.436;7.826;2024-01-06T14:38:21;13.52;;;10.60;;
81154;SDS011;70631;50.436;7.826;2024-01-06T14:40:47;29.80;;;25.03;;
81154;SDS011;70631;50.436;7.826;2024-01-06T14:43:12;14.80;;;7.40;;
81154;SDS011;70631;50.436;7.826;2024-01-06T14:45:37;10.53;;;5.37;;
81154;SDS011;70631;50.436;7.826;2024-01-06T14:48:03;6.53;;;3.65;;
81154;SDS011;70631;50.436;7.826;2024-01-06T14:50:28;7.20;;;3.90;;
81154;SDS011;70631;50.436;7.826;2024-01-06T14:52:54;7.72;;;4.50;;